createdAt,value
2022-08-16T00:02:12.840Z,100.00
2022-08-16T00:04:40.166Z,100.00
2022-08-16T00:07:06.539Z,100.00
2022-08-16T00:09:33.080Z,100.00
2022-08-16T00:12:02.735Z,100.00
2022-08-16T00:14:33.063Z,100.00
2022-08-16T00:17:15.872Z,100.00
2022-08-16T00:19:45.922Z,100.00
2022-08-16T00:22:13.499Z,100.00
2022-08-16T00:24:41.837Z,100.00
2022-08-16T00:27:13.215Z,100.00
2022-08-16T00:29:39.611Z,100.00
2022-08-16T00:32:08.611Z,100.00
2022-08-16T00:34:43.601Z,100.00
2022-08-16T00:37:20.267Z,100.00
2022-08-16T00:39:48.015Z,100.00
2022-08-16T00:42:29.550Z,100.00
2022-08-16T00:45:06.386Z,100.00
2022-08-16T00:47:36.881Z,100.00
2022-08-16T00:50:05.193Z,100.00
2022-08-16T00:52:38.441Z,100.00
2022-08-16T00:55:12.396Z,100.00
2022-08-16T00:57:59.117Z,100.00
2022-08-16T01:00:28.731Z,100.00
2022-08-16T01:02:57.591Z,100.00
2022-08-16T01:05:25.380Z,100.00
2022-08-16T01:07:53.569Z,100.00
2022-08-16T01:10:31.955Z,100.00
2022-08-16T01:13:12.131Z,100.00
2022-08-16T01:15:47.259Z,100.00
2022-08-16T01:18:40.761Z,100.00
2022-08-16T01:21:22.959Z,100.00
2022-08-16T01:24:51.688Z,100.00
2022-08-16T01:27:09.190Z,100.00
2022-08-16T01:29:58.473Z,100.00
2022-08-16T01:32:31.862Z,100.00
2022-08-16T01:35:00.799Z,100.00
2022-08-16T01:37:27.587Z,100.00
2022-08-16T01:40:07.202Z,100.00
2022-08-16T01:42:34.027Z,100.00
2022-08-16T01:45:00.612Z,100.00
2022-08-16T01:47:28.115Z,100.00
2022-08-16T01:51:05.106Z,100.00
2022-08-16T01:52:46.555Z,100.00
2022-08-16T01:55:13.151Z,100.00
2022-08-16T01:57:41.101Z,100.00
2022-08-16T02:00:20.701Z,100.00
2022-08-16T02:02:56.315Z,100.00
2022-08-16T02:05:23.641Z,100.00
2022-08-16T02:07:52.084Z,100.00
2022-08-16T02:10:18.782Z,100.00
2022-08-16T02:12:51.180Z,100.00
2022-08-16T02:15:26.538Z,100.00
2022-08-16T02:17:55.144Z,100.00
2022-08-16T02:20:26.494Z,100.00
2022-08-16T02:22:55.769Z,100.00
2022-08-16T02:25:22.541Z,100.00
2022-08-16T02:27:51.151Z,100.00
2022-08-16T02:30:37.095Z,100.00
2022-08-16T02:33:10.735Z,100.00
2022-08-16T02:35:54.607Z,100.00
2022-08-16T02:38:22.739Z,100.00
2022-08-16T02:40:50.326Z,100.00
2022-08-16T02:43:17.151Z,100.00
2022-08-16T02:45:43.673Z,100.00
2022-08-16T02:48:30.270Z,100.00
2022-08-16T02:51:06.452Z,100.00
2022-08-16T02:53:41.494Z,100.00
2022-08-16T02:56:11.167Z,100.00
2022-08-16T02:58:38.420Z,100.00
2022-08-16T03:01:07.132Z,100.00
2022-08-16T03:04:41.159Z,100.00
2022-08-16T03:06:42.512Z,100.00
2022-08-16T03:09:13.549Z,100.00
2022-08-16T03:11:41.040Z,100.00
2022-08-16T03:14:07.787Z,100.00
2022-08-16T03:16:42.388Z,100.00
2022-08-16T03:19:21.596Z,100.00
2022-08-16T03:21:49.351Z,100.00
2022-08-16T03:24:28.184Z,100.00
2022-08-16T03:27:02.910Z,100.00
2022-08-16T03:29:32.836Z,100.00
2022-08-16T03:32:01.777Z,100.00
2022-08-16T03:34:29.759Z,100.00
2022-08-16T03:36:57.402Z,100.00
2022-08-16T03:39:24.527Z,100.00
2022-08-16T03:41:59.817Z,100.00
2022-08-16T03:44:44.592Z,100.00
2022-08-16T03:47:13.685Z,100.00
2022-08-16T03:49:47.898Z,100.00
2022-08-16T03:52:18.909Z,100.00
2022-08-16T03:54:53.468Z,100.00
2022-08-16T03:57:24.673Z,100.00
2022-08-16T03:59:59.131Z,100.00
2022-08-16T04:02:31.480Z,100.00
2022-08-16T04:04:58.159Z,100.00
2022-08-16T04:07:25.247Z,100.00
2022-08-16T04:09:52.407Z,100.00
2022-08-16T04:12:53.274Z,100.00
2022-08-16T04:15:08.807Z,100.00
2022-08-16T04:17:36.753Z,100.00
2022-08-16T04:20:23.676Z,100.00
2022-08-16T04:22:55.732Z,100.00
2022-08-16T04:25:22.848Z,100.00
2022-08-16T04:27:54.288Z,100.00
2022-08-16T04:30:32.319Z,100.00
2022-08-16T04:33:01.996Z,100.00
2022-08-16T04:35:34.299Z,100.00
2022-08-16T04:38:00.984Z,100.00
2022-08-16T04:40:37.266Z,100.00
2022-08-16T04:43:03.987Z,100.00
2022-08-16T04:45:36.216Z,100.00
2022-08-16T04:48:04.157Z,100.00
2022-08-16T04:50:30.723Z,100.00
2022-08-16T04:52:59.137Z,100.00
2022-08-16T04:55:31.675Z,100.00
2022-08-16T04:58:03.929Z,100.00
2022-08-16T05:00:50.375Z,100.00
2022-08-16T05:03:16.876Z,100.00
2022-08-16T05:05:59.037Z,100.00
2022-08-16T05:08:31.537Z,100.00
2022-08-16T05:11:00.559Z,100.00
2022-08-16T05:13:40.043Z,100.00
2022-08-16T05:16:16.690Z,100.00
2022-08-16T05:18:47.253Z,100.00
2022-08-16T05:21:13.878Z,100.00
2022-08-16T05:23:40.897Z,100.00
2022-08-16T05:26:19.565Z,100.00
2022-08-16T05:28:55.625Z,100.00
2022-08-16T05:31:23.823Z,100.00
2022-08-16T05:33:56.263Z,100.00
2022-08-16T05:36:22.620Z,100.00
2022-08-16T05:38:49.091Z,100.00
2022-08-16T05:41:16.977Z,100.00
2022-08-16T05:43:46.741Z,100.00
2022-08-16T05:46:28.686Z,100.00
2022-08-16T05:49:03.704Z,100.00
2022-08-16T05:51:35.802Z,100.00
2022-08-16T05:54:07.507Z,100.00
2022-08-16T05:56:36.017Z,100.00
2022-08-16T05:59:06.415Z,100.00
2022-08-16T06:01:38.027Z,100.00
2022-08-16T06:04:05.564Z,100.00
2022-08-16T06:06:43.559Z,100.00
2022-08-16T06:09:22.411Z,100.00
2022-08-16T06:11:49.357Z,100.00
2022-08-16T06:14:17.359Z,100.00
2022-08-16T06:16:44.510Z,100.00
2022-08-16T06:19:17.195Z,100.00
2022-08-16T06:21:43.942Z,100.00
2022-08-16T06:24:54.065Z,100.00
2022-08-16T06:26:58.205Z,100.00
2022-08-16T06:29:24.878Z,100.00
2022-08-16T06:31:51.781Z,100.00
2022-08-16T06:34:53.242Z,100.00
2022-08-16T06:37:05.121Z,100.00
2022-08-16T06:39:34.565Z,100.00
2022-08-16T06:42:18.334Z,100.00
2022-08-16T06:44:45.842Z,100.00
2022-08-16T06:47:16.961Z,100.00
2022-08-16T06:49:52.536Z,100.00
2022-08-16T06:52:58.354Z,100.00
2022-08-16T06:55:08.248Z,100.00
2022-08-16T06:57:40.655Z,100.00
2022-08-16T07:00:24.192Z,100.00
2022-08-16T07:02:53.657Z,100.00
2022-08-16T07:05:21.099Z,100.00
2022-08-16T07:07:54.239Z,100.00
2022-08-16T07:10:26.680Z,100.00
2022-08-16T07:12:56.735Z,100.00
2022-08-16T07:15:31.850Z,100.00
2022-08-16T07:17:59.870Z,100.00
2022-08-16T07:20:35.081Z,100.00
2022-08-16T07:23:02.746Z,100.00
2022-08-16T07:25:40.475Z,100.00
2022-08-16T07:28:07.037Z,100.00
2022-08-16T07:30:46.335Z,100.00
2022-08-16T07:33:16.322Z,100.00
2022-08-16T07:35:49.440Z,100.00
2022-08-16T07:38:19.769Z,100.00
2022-08-16T07:40:59.567Z,100.00
2022-08-16T07:43:29.352Z,100.00
2022-08-16T07:45:56.541Z,100.00
2022-08-16T07:48:24.125Z,100.00
2022-08-16T07:50:56.041Z,100.00
2022-08-16T07:53:29.042Z,100.00
2022-08-16T07:55:55.656Z,100.00
2022-08-16T07:58:34.198Z,100.00
2022-08-16T08:01:10.717Z,100.00
2022-08-16T08:03:49.074Z,99.03
2022-08-16T08:06:21.212Z,98.18
2022-08-16T08:08:57.372Z,98.37
2022-08-16T08:11:28.375Z,97.96
2022-08-16T08:13:55.407Z,96.96
2022-08-16T08:16:30.501Z,95.21
2022-08-16T08:19:00.880Z,95.83
2022-08-16T08:21:59.807Z,93.06
2022-08-16T08:24:15.353Z,93.05
2022-08-16T08:26:42.977Z,90.43
2022-08-16T08:29:09.763Z,87.97
2022-08-16T08:31:41.179Z,85.05
2022-08-16T08:34:07.999Z,81.92
2022-08-16T08:36:38.200Z,78.12
2022-08-16T08:39:12.725Z,79.93
2022-08-16T08:41:41.511Z,73.95
2022-08-16T08:44:27.875Z,73.45
2022-08-16T08:47:00.362Z,71.87
2022-08-16T08:49:46.688Z,70.92
2022-08-16T08:52:35.165Z,70.52
2022-08-16T08:55:09.532Z,69.99
2022-08-16T08:57:41.580Z,69.24
2022-08-16T09:00:13.884Z,68.38
2022-08-16T09:02:45.511Z,68.63
2022-08-16T09:05:14.858Z,68.16
2022-08-16T09:08:00.172Z,68.22
2022-08-16T09:10:29.350Z,68.77
2022-08-16T09:12:56.331Z,67.36
2022-08-16T09:15:23.814Z,67.55
2022-08-16T09:17:54.602Z,67.60
2022-08-16T09:20:23.702Z,67.87
2022-08-16T09:22:52.444Z,67.05
2022-08-16T09:25:26.204Z,67.06
2022-08-16T09:28:02.206Z,66.39
2022-08-16T09:30:36.076Z,65.82
2022-08-16T09:33:11.140Z,67.12
2022-08-16T09:35:39.019Z,66.15
2022-08-16T09:38:08.475Z,64.70
2022-08-16T09:40:43.736Z,65.63
2022-08-16T09:43:46.468Z,65.04
2022-08-16T09:45:58.878Z,64.89
2022-08-16T09:48:36.852Z,63.50
2022-08-16T09:51:12.700Z,63.13
2022-08-16T09:53:39.691Z,64.18
2022-08-16T09:56:19.728Z,62.86
2022-08-16T09:59:04.929Z,61.40
2022-08-16T10:01:36.370Z,61.81
2022-08-16T10:04:04.678Z,61.07
2022-08-16T10:06:34.220Z,61.43
2022-08-16T10:09:05.934Z,61.33
2022-08-16T10:11:53.245Z,61.37
2022-08-16T10:14:20.098Z,61.38
2022-08-16T10:16:51.452Z,60.52
2022-08-16T10:19:27.852Z,59.03
2022-08-16T10:21:56.315Z,60.71
2022-08-16T10:24:28.563Z,59.37
2022-08-16T10:27:20.232Z,58.51
2022-08-16T10:30:00.317Z,58.10
2022-08-16T10:32:30.653Z,57.83
2022-08-16T10:34:58.936Z,58.16
2022-08-16T10:37:32.187Z,58.71
2022-08-16T10:40:14.660Z,57.14
2022-08-16T10:42:55.446Z,56.84
2022-08-16T10:45:21.847Z,56.38
2022-08-16T10:48:02.787Z,56.71
2022-08-16T10:50:32.370Z,56.82
2022-08-16T10:52:59.719Z,54.97
2022-08-16T10:55:44.083Z,55.20
2022-08-16T10:58:16.845Z,54.17
2022-08-16T11:00:46.326Z,53.65
2022-08-16T11:06:00.583Z,56.01
2022-08-16T11:08:35.841Z,54.81
2022-08-16T11:11:11.517Z,54.65
2022-08-16T11:13:59.049Z,53.97
2022-08-16T11:17:02.132Z,53.09
2022-08-16T11:19:15.578Z,53.07
2022-08-16T11:24:42.451Z,54.20
2022-08-16T11:27:23.982Z,54.01
2022-08-16T11:29:59.056Z,54.50
2022-08-16T11:32:31.335Z,55.26
2022-08-16T11:35:14.268Z,54.50
2022-08-16T11:40:40.819Z,52.53
2022-08-16T11:43:12.461Z,51.46
2022-08-16T11:45:38.824Z,53.93
2022-08-16T11:48:09.354Z,54.31
2022-08-16T11:50:36.056Z,54.79
2022-08-16T11:53:04.317Z,54.03
2022-08-16T11:55:32.205Z,52.30
2022-08-16T11:58:00.421Z,52.45
2022-08-16T12:00:42.676Z,52.34
2022-08-16T12:03:15.261Z,51.65
2022-08-16T12:05:44.817Z,51.55
2022-08-16T12:08:12.541Z,52.23
2022-08-16T12:10:41.108Z,53.52
2022-08-16T12:13:10.856Z,49.36
2022-08-16T12:15:37.916Z,47.58
2022-08-16T12:18:05.153Z,51.48
2022-08-16T12:20:36.439Z,52.10
2022-08-16T12:23:03.839Z,53.10
2022-08-16T12:25:32.160Z,53.90
2022-08-16T12:27:58.789Z,54.97
2022-08-16T12:30:38.632Z,55.40
2022-08-16T12:33:07.081Z,56.17
2022-08-16T12:35:35.600Z,55.90
2022-08-16T12:38:38.004Z,56.56
2022-08-16T12:40:50.900Z,56.56
2022-08-16T12:43:23.467Z,57.87
2022-08-16T12:45:54.189Z,57.04
2022-08-16T12:48:44.719Z,58.41
2022-08-16T12:51:19.967Z,59.20
2022-08-16T12:53:52.563Z,59.02
2022-08-16T12:56:21.855Z,59.09
2022-08-16T12:58:52.416Z,58.91
2022-08-16T13:01:22.449Z,57.49
2022-08-16T13:03:50.215Z,57.93
2022-08-16T13:06:29.395Z,57.77
2022-08-16T13:09:17.975Z,55.56
2022-08-16T13:12:15.955Z,54.36
2022-08-16T13:14:43.942Z,54.58
2022-08-16T13:17:19.121Z,55.75
2022-08-16T13:22:36.719Z,55.34
2022-08-16T13:25:06.419Z,54.31
2022-08-16T13:27:34.936Z,54.11
2022-08-16T13:30:36.312Z,54.07
2022-08-16T13:33:12.287Z,54.47
2022-08-16T13:35:43.380Z,55.29
2022-08-16T13:38:11.125Z,54.18
2022-08-16T13:40:52.968Z,54.29
2022-08-16T13:43:23.284Z,54.31
2022-08-16T13:45:50.568Z,54.04
2022-08-16T13:48:21.930Z,54.90
2022-08-16T13:50:52.728Z,54.22
2022-08-16T13:53:24.215Z,54.35
2022-08-16T13:55:58.480Z,53.38
2022-08-16T13:58:37.335Z,53.99
2022-08-16T14:01:14.018Z,56.02
2022-08-16T14:03:41.129Z,55.80
2022-08-16T14:06:10.922Z,56.99
2022-08-16T14:08:42.011Z,57.78
2022-08-16T14:11:14.458Z,57.18
2022-08-16T14:13:42.829Z,56.76
2022-08-16T14:16:12.681Z,55.87
2022-08-16T14:18:50.434Z,55.30
2022-08-16T14:21:19.887Z,55.33
2022-08-16T14:23:52.146Z,54.27
2022-08-16T14:26:19.777Z,54.07
2022-08-16T14:28:46.207Z,53.56
2022-08-16T14:31:12.644Z,54.64
2022-08-16T14:33:41.717Z,53.43
2022-08-16T14:36:08.484Z,51.32
2022-08-16T14:38:37.407Z,53.18
2022-08-16T14:41:06.943Z,52.54
2022-08-16T14:43:37.455Z,52.74
2022-08-16T14:46:06.588Z,53.29
2022-08-16T14:48:34.534Z,53.67
2022-08-16T14:51:01.438Z,54.31
2022-08-16T14:53:28.852Z,54.26
2022-08-16T14:55:59.026Z,54.63
2022-08-16T14:58:34.928Z,55.44
2022-08-16T15:01:05.789Z,54.66
2022-08-16T15:03:33.198Z,55.84
2022-08-16T15:06:03.994Z,54.33
2022-08-16T15:08:36.794Z,53.97
2022-08-16T15:11:04.840Z,54.86
2022-08-16T15:13:31.216Z,55.54
2022-08-16T15:16:02.464Z,55.33
2022-08-16T15:18:31.875Z,54.18
2022-08-16T15:20:59.370Z,54.73
2022-08-16T15:23:25.862Z,53.74
2022-08-16T15:26:03.484Z,52.75
2022-08-16T15:28:32.699Z,52.70
2022-08-16T15:31:03.231Z,53.48
2022-08-16T15:33:32.946Z,52.32
2022-08-16T15:36:01.055Z,53.13
2022-08-16T15:38:57.395Z,52.84
2022-08-16T15:41:34.200Z,52.89
2022-08-16T15:44:05.328Z,52.82
2022-08-16T15:46:54.659Z,50.61
2022-08-16T15:49:37.102Z,49.86
2022-08-16T15:52:12.707Z,50.45
2022-08-16T15:54:52.493Z,51.63
2022-08-16T15:57:22.028Z,51.27
2022-08-16T15:59:52.952Z,51.10
2022-08-16T16:02:29.626Z,52.17
2022-08-16T16:05:04.426Z,51.64
2022-08-16T16:07:32.130Z,52.12
2022-08-16T16:10:01.894Z,51.27
2022-08-16T16:12:51.715Z,51.60
2022-08-16T16:15:18.317Z,51.78
2022-08-16T16:17:50.637Z,51.89
2022-08-16T16:20:17.836Z,51.56
2022-08-16T16:22:44.527Z,51.30
2022-08-16T16:25:11.500Z,52.62
2022-08-16T16:27:37.971Z,52.55
2022-08-16T16:30:32.756Z,52.55
2022-08-16T16:32:52.132Z,53.78
2022-08-16T16:35:18.732Z,53.73
2022-08-16T16:37:51.725Z,54.09
2022-08-16T16:40:23.805Z,52.01
2022-08-16T16:42:59.906Z,52.65
2022-08-16T16:45:34.570Z,52.04
2022-08-16T16:48:11.671Z,53.20
2022-08-16T16:50:40.433Z,53.55
2022-08-16T16:53:17.143Z,54.27
2022-08-16T16:55:47.680Z,56.28
2022-08-16T16:58:40.492Z,57.13
2022-08-16T17:01:09.785Z,58.49
2022-08-16T17:03:36.624Z,59.45
2022-08-16T17:06:09.129Z,58.52
2022-08-16T17:08:37.749Z,58.71
2022-08-16T17:11:08.239Z,58.72
2022-08-16T17:13:34.979Z,58.39
2022-08-16T17:16:01.508Z,58.65
2022-08-16T17:19:21.796Z,58.75
2022-08-16T17:21:16.411Z,57.25
2022-08-16T17:23:58.922Z,56.61
2022-08-16T17:26:30.131Z,55.46
2022-08-16T17:29:02.458Z,55.47
2022-08-16T17:31:40.815Z,55.59
2022-08-16T17:34:31.077Z,55.91
2022-08-16T17:36:59.533Z,56.03
2022-08-16T17:39:29.481Z,57.51
2022-08-16T17:41:57.203Z,57.74
2022-08-16T17:44:23.653Z,58.86
2022-08-16T17:46:52.396Z,59.85
2022-08-16T17:49:19.806Z,59.68
2022-08-16T17:51:46.260Z,59.68
2022-08-16T17:54:16.992Z,59.54
2022-08-16T17:57:00.481Z,58.90
2022-08-16T17:59:28.004Z,60.04
2022-08-16T18:01:54.841Z,59.77
2022-08-16T18:04:49.908Z,60.07
2022-08-16T18:07:08.437Z,60.79
2022-08-16T18:09:36.589Z,61.32
2022-08-16T18:12:24.021Z,62.68
2022-08-16T18:15:10.378Z,62.06
2022-08-16T18:17:37.157Z,62.55
2022-08-16T18:20:27.873Z,63.47
2022-08-16T18:22:54.421Z,64.09
2022-08-16T18:25:21.071Z,64.26
2022-08-16T18:27:47.472Z,65.56
2022-08-16T18:30:17.531Z,66.44
2022-08-16T18:32:48.650Z,66.70
2022-08-16T18:35:20.387Z,67.11
2022-08-16T18:37:47.151Z,67.81
2022-08-16T18:40:15.275Z,67.82
2022-08-16T18:43:03.780Z,68.95
2022-08-16T18:45:35.706Z,70.35
2022-08-16T18:48:04.974Z,71.59
2022-08-16T18:51:03.110Z,73.15
2022-08-16T18:53:20.818Z,75.17
2022-08-16T18:55:48.442Z,77.78
2022-08-16T18:58:15.638Z,77.79
2022-08-16T19:00:56.375Z,77.81
2022-08-16T19:03:27.378Z,78.18
2022-08-16T19:06:06.448Z,76.06
2022-08-16T19:08:37.545Z,76.18
2022-08-16T19:11:06.560Z,76.17
2022-08-16T19:13:34.524Z,76.10
2022-08-16T19:16:03.688Z,76.25
2022-08-16T19:18:36.398Z,77.02
2022-08-16T19:21:04.525Z,77.71
2022-08-16T19:23:34.344Z,77.49
2022-08-16T19:26:06.395Z,78.41
2022-08-16T19:28:57.835Z,78.63
2022-08-16T19:31:26.350Z,77.84
2022-08-16T19:33:56.345Z,77.90
2022-08-16T19:36:30.954Z,79.41
2022-08-16T19:39:04.334Z,79.22
2022-08-16T19:41:31.631Z,78.69
2022-08-16T19:43:58.054Z,79.20
2022-08-16T19:46:24.552Z,79.64
2022-08-16T19:48:53.644Z,78.50
2022-08-16T19:51:20.080Z,80.19
2022-08-16T19:53:46.748Z,79.20
2022-08-16T19:56:13.203Z,80.17
2022-08-16T19:58:50.990Z,82.26
2022-08-16T20:01:24.917Z,82.12
2022-08-16T20:03:51.916Z,82.55
2022-08-16T20:06:37.607Z,83.45
2022-08-16T20:09:05.458Z,83.78
2022-08-16T20:11:31.914Z,84.08
2022-08-16T20:13:59.230Z,83.68
2022-08-16T20:16:26.006Z,84.45
2022-08-16T20:18:52.399Z,85.11
2022-08-16T20:21:19.427Z,86.45
2022-08-16T20:23:46.003Z,86.27
2022-08-16T20:26:12.407Z,87.83
2022-08-16T20:28:52.694Z,88.71
2022-08-16T20:31:21.575Z,88.07
2022-08-16T20:33:48.098Z,88.43
2022-08-16T20:36:16.684Z,89.25
2022-08-16T20:38:46.888Z,89.98
2022-08-16T20:41:14.250Z,91.13
2022-08-16T20:43:40.821Z,87.63
2022-08-16T20:46:07.718Z,90.86
2022-08-16T20:48:34.163Z,92.65
2022-08-16T20:51:00.635Z,91.62
2022-08-16T20:53:27.509Z,92.24
2022-08-16T20:55:53.995Z,92.57
2022-08-16T20:58:20.636Z,92.59
2022-08-16T21:00:47.240Z,93.08
2022-08-16T21:03:14.124Z,92.87
2022-08-16T21:05:41.275Z,94.30
2022-08-16T21:08:52.714Z,95.39
2022-08-16T21:10:56.491Z,96.25
2022-08-16T21:13:25.832Z,95.53
2022-08-16T21:15:52.651Z,95.88
2022-08-16T21:18:19.104Z,96.65
2022-08-16T21:20:45.535Z,97.08
2022-08-16T21:23:11.922Z,97.08
2022-08-16T21:25:40.212Z,98.28
2022-08-16T21:28:41.050Z,97.82
2022-08-16T21:31:04.221Z,97.81
2022-08-16T21:33:30.665Z,98.75
2022-08-16T21:35:57.049Z,98.78
2022-08-16T21:38:28.612Z,99.03
2022-08-16T21:40:57.798Z,98.55
2022-08-16T21:43:25.347Z,99.66
2022-08-16T21:45:55.425Z,100.00
2022-08-16T21:48:33.984Z,100.00
2022-08-16T21:51:01.376Z,100.00
2022-08-16T21:53:29.428Z,100.00
2022-08-16T21:55:56.902Z,100.00
2022-08-16T21:58:24.472Z,100.00
2022-08-16T22:00:51.450Z,100.00
2022-08-16T22:03:18.355Z,100.00
2022-08-16T22:06:00.127Z,100.00
2022-08-16T22:08:34.101Z,100.00
2022-08-16T22:11:06.632Z,100.00
2022-08-16T22:13:34.951Z,100.00
2022-08-16T22:16:03.986Z,100.00
2022-08-16T22:18:30.379Z,100.00
2022-08-16T22:20:56.811Z,100.00
2022-08-16T22:23:25.803Z,100.00
2022-08-16T22:25:54.187Z,100.00
2022-08-16T22:28:22.550Z,100.00
2022-08-16T22:30:49.357Z,100.00
2022-08-16T22:33:19.298Z,100.00
2022-08-16T22:35:52.827Z,100.00
2022-08-16T22:38:53.780Z,100.00
2022-08-16T22:41:06.800Z,100.00
2022-08-16T22:43:33.507Z,100.00
2022-08-16T22:46:00.517Z,100.00
2022-08-16T22:48:26.987Z,100.00
2022-08-16T22:50:53.474Z,100.00
2022-08-16T22:53:20.246Z,100.00
2022-08-16T22:55:46.990Z,100.00
2022-08-16T22:58:13.861Z,100.00
2022-08-16T23:00:40.711Z,100.00
2022-08-16T23:03:10.196Z,100.00
2022-08-16T23:05:56.050Z,100.00
2022-08-16T23:08:32.188Z,100.00
2022-08-16T23:11:06.182Z,100.00
2022-08-16T23:13:32.957Z,100.00
2022-08-16T23:16:11.151Z,100.00
2022-08-16T23:18:39.596Z,100.00
2022-08-16T23:21:09.629Z,100.00
2022-08-16T23:23:37.399Z,100.00
2022-08-16T23:26:44.065Z,100.00
2022-08-16T23:28:51.362Z,100.00
2022-08-16T23:31:17.948Z,100.00
2022-08-16T23:33:44.747Z,100.00
2022-08-16T23:36:11.890Z,100.00
2022-08-16T23:38:39.778Z,100.00
2022-08-16T23:41:09.144Z,100.00
2022-08-16T23:43:43.461Z,100.00
2022-08-16T23:46:17.427Z,100.00
2022-08-16T23:50:01.304Z,100.00
2022-08-16T23:51:32.203Z,100.00
2022-08-16T23:53:58.922Z,100.00
2022-08-16T23:56:25.818Z,100.00
2022-08-16T23:58:54.418Z,100.00
